sensor_id;sensor_type;location;lat;lon;timestamp;P1;durP1;ratioP1;P2;durP2;ratioP2
47413;SDS011;33163;0.000;0.000;2023-04-29T00:00:09;9.07;;;4.15;;
47413;SDS011;33163;0.000;0.000;2023-04-29T00:02:38;9.38;;;4.05;;
47413;SDS011;33163;0.000;0.000;2023-04-29T00:05:05;10.45;;;4.75;;
47413;SDS011;33163;0.000;0.000;2023-04-29T00:07:32;10.02;;;4.53;;
47413;SDS011;33163;0.000;0.000;2023-04-29T00:10:00;15.30;;;4.95;;
47413;SDS011;33163;0.000;0.000;2023-04-29T00:12:27;8.98;;;3.95;;
47413;SDS011;33163;0.000;0.000;2023-04-29T00:14:56;9.70;;;3.80;;
47413;SDS011;33163;0.000;0.000;2023-04-29T00:17:23;8.55;;;4.28;;
47413;SDS011;33163;0.000;0.000;2023-04-29T00:19:51;8.88;;;4.28;;
47413;SDS011;33163;0.000;0.000;2023-04-29T00:22:18;10.98;;;4.30;;
47413;SDS011;33163;0.000;0.000;2023-04-29T00:24:46;10.40;;;3.95;;
47413;SDS011;33163;0.000;0.000;2023-04-29T00:27:13;9.25;;;3.97;;
47413;SDS011;33163;0.000;0.000;2023-04-29T00:29:40;12.00;;;4.15;;
47413;SDS011;33163;0.000;0.000;2023-04-29T00:32:07;6.43;;;3.67;;
47413;SDS011;33163;0.000;0.000;2023-04-29T00:34:34;7.03;;;3.75;;
47413;SDS011;33163;0.000;0.000;2023-04-29T00:37:02;9.45;;;4.18;;
47413;SDS011;33163;0.000;0.000;2023-04-29T00:39:29;8.38;;;3.60;;
47413;SDS011;33163;0.000;0.000;2023-04-29T00:41:56;10.50;;;4.78;;
47413;SDS011;33163;0.000;0.000;2023-04-29T00:44:22;8.63;;;3.72;;
47413;SDS011;33163;0.000;0.000;2023-04-29T00:46:49;7.32;;;3.72;;
47413;SDS011;33163;0.000;0.000;2023-04-29T00:49:16;7.95;;;4.07;;
47413;SDS011;33163;0.000;0.000;2023-04-29T00:51:43;9.75;;;3.60;;
47413;SDS011;33163;0.000;0.000;2023-04-29T00:54:11;7.38;;;4.15;;
47413;SDS011;33163;0.000;0.000;2023-04-29T00:56:38;7.72;;;4.07;;
47413;SDS011;33163;0.000;0.000;2023-04-29T00:59:06;6.88;;;3.40;;
47413;SDS011;33163;0.000;0.000;2023-04-29T01:01:36;9.00;;;3.95;;
47413;SDS011;33163;0.000;0.000;2023-04-29T01:04:03;7.60;;;4.07;;
47413;SDS011;33163;0.000;0.000;2023-04-29T01:06:33;11.48;;;3.47;;
47413;SDS011;33163;0.000;0.000;2023-04-29T01:09:17;8.65;;;3.38;;
47413;SDS011;33163;0.000;0.000;2023-04-29T01:11:54;7.60;;;3.92;;
47413;SDS011;33163;0.000;0.000;2023-04-29T01:14:28;6.82;;;3.63;;
47413;SDS011;33163;0.000;0.000;2023-04-29T01:16:58;7.18;;;3.55;;
47413;SDS011;33163;0.000;0.000;2023-04-29T01:19:33;7.63;;;3.63;;
47413;SDS011;33163;0.000;0.000;2023-04-29T01:22:10;8.38;;;3.38;;
47413;SDS011;33163;0.000;0.000;2023-04-29T01:24:39;5.85;;;3.97;;
47413;SDS011;33163;0.000;0.000;2023-04-29T01:27:09;8.60;;;3.60;;
47413;SDS011;33163;0.000;0.000;2023-04-29T01:29:43;5.53;;;3.40;;
47413;SDS011;33163;0.000;0.000;2023-04-29T01:32:17;8.77;;;3.92;;
47413;SDS011;33163;0.000;0.000;2023-04-29T01:34:48;10.98;;;4.25;;
47413;SDS011;33163;0.000;0.000;2023-04-29T01:37:21;9.10;;;4.00;;
47413;SDS011;33163;0.000;0.000;2023-04-29T01:39:56;5.85;;;3.60;;
47413;SDS011;33163;0.000;0.000;2023-04-29T01:42:33;5.15;;;3.20;;
47413;SDS011;33163;0.000;0.000;2023-04-29T01:45:04;6.68;;;3.50;;
47413;SDS011;33163;0.000;0.000;2023-04-29T01:47:33;6.97;;;3.72;;
47413;SDS011;33163;0.000;0.000;2023-04-29T01:50:02;8.70;;;3.75;;
47413;SDS011;33163;0.000;0.000;2023-04-29T01:52:29;6.85;;;3.45;;
47413;SDS011;33163;0.000;0.000;2023-04-29T01:54:57;10.68;;;4.10;;
47413;SDS011;33163;0.000;0.000;2023-04-29T01:57:24;10.38;;;4.10;;
47413;SDS011;33163;0.000;0.000;2023-04-29T01:59:50;10.05;;;3.67;;
47413;SDS011;33163;0.000;0.000;2023-04-29T02:02:17;7.55;;;3.83;;
47413;SDS011;33163;0.000;0.000;2023-04-29T02:04:45;9.63;;;3.83;;
47413;SDS011;33163;0.000;0.000;2023-04-29T02:07:14;5.00;;;3.13;;
47413;SDS011;33163;0.000;0.000;2023-04-29T02:09:41;8.00;;;3.40;;
47413;SDS011;33163;0.000;0.000;2023-04-29T02:12:09;6.55;;;3.45;;
47413;SDS011;33163;0.000;0.000;2023-04-29T02:14:36;9.20;;;3.90;;
47413;SDS011;33163;0.000;0.000;2023-04-29T02:17:03;7.07;;;3.70;;
47413;SDS011;33163;0.000;0.000;2023-04-29T02:19:30;11.15;;;3.83;;
47413;SDS011;33163;0.000;0.000;2023-04-29T02:21:57;8.57;;;4.10;;
47413;SDS011;33163;0.000;0.000;2023-04-29T02:24:23;7.13;;;3.65;;
47413;SDS011;33163;0.000;0.000;2023-04-29T02:26:50;9.73;;;3.38;;
47413;SDS011;33163;0.000;0.000;2023-04-29T02:29:18;6.75;;;3.60;;
47413;SDS011;33163;0.000;0.000;2023-04-29T02:31:45;7.78;;;3.63;;
47413;SDS011;33163;0.000;0.000;2023-04-29T02:34:12;5.38;;;3.55;;
47413;SDS011;33163;0.000;0.000;2023-04-29T02:36:39;6.60;;;4.05;;
47413;SDS011;33163;0.000;0.000;2023-04-29T02:39:05;7.90;;;3.60;;
47413;SDS011;33163;0.000;0.000;2023-04-29T02:41:32;5.18;;;3.10;;
47413;SDS011;33163;0.000;0.000;2023-04-29T02:43:59;6.68;;;3.65;;
47413;SDS011;33163;0.000;0.000;2023-04-29T02:46:27;7.25;;;3.85;;
47413;SDS011;33163;0.000;0.000;2023-04-29T02:48:54;11.52;;;3.75;;
47413;SDS011;33163;0.000;0.000;2023-04-29T02:51:21;7.10;;;3.67;;
47413;SDS011;33163;0.000;0.000;2023-04-29T02:53:48;6.30;;;3.78;;
47413;SDS011;33163;0.000;0.000;2023-04-29T02:56:15;4.85;;;3.40;;
47413;SDS011;33163;0.000;0.000;2023-04-29T02:58:41;8.18;;;4.22;;
47413;SDS011;33163;0.000;0.000;2023-04-29T03:01:08;6.78;;;3.30;;
47413;SDS011;33163;0.000;0.000;2023-04-29T03:03:36;7.10;;;3.60;;
47413;SDS011;33163;0.000;0.000;2023-04-29T03:06:04;6.07;;;3.13;;
47413;SDS011;33163;0.000;0.000;2023-04-29T03:08:30;5.60;;;2.97;;
47413;SDS011;33163;0.000;0.000;2023-04-29T03:10:58;5.13;;;3.25;;
47413;SDS011;33163;0.000;0.000;2023-04-29T03:13:25;6.18;;;3.47;;
47413;SDS011;33163;0.000;0.000;2023-04-29T03:15:51;5.85;;;3.47;;
47413;SDS011;33163;0.000;0.000;2023-04-29T03:18:18;5.55;;;3.22;;
47413;SDS011;33163;0.000;0.000;2023-04-29T03:20:46;4.45;;;3.08;;
47413;SDS011;33163;0.000;0.000;2023-04-29T03:23:13;4.20;;;2.80;;
47413;SDS011;33163;0.000;0.000;2023-04-29T03:25:39;4.70;;;3.13;;
47413;SDS011;33163;0.000;0.000;2023-04-29T03:28:06;3.50;;;3.20;;
47413;SDS011;33163;0.000;0.000;2023-04-29T03:30:33;6.35;;;2.85;;
47413;SDS011;33163;0.000;0.000;2023-04-29T03:33:00;6.70;;;3.33;;
47413;SDS011;33163;0.000;0.000;2023-04-29T03:35:27;5.85;;;3.53;;
47413;SDS011;33163;0.000;0.000;2023-04-29T03:37:55;7.55;;;3.50;;
47413;SDS011;33163;0.000;0.000;2023-04-29T03:40:22;3.38;;;2.42;;
47413;SDS011;33163;0.000;0.000;2023-04-29T03:42:48;4.72;;;3.15;;
47413;SDS011;33163;0.000;0.000;2023-04-29T03:45:15;8.32;;;3.45;;
47413;SDS011;33163;0.000;0.000;2023-04-29T03:47:43;8.02;;;3.45;;
47413;SDS011;33163;0.000;0.000;2023-04-29T03:50:10;6.75;;;3.40;;
47413;SDS011;33163;0.000;0.000;2023-04-29T03:52:36;6.57;;;3.38;;
47413;SDS011;33163;0.000;0.000;2023-04-29T03:55:05;8.77;;;4.05;;
47413;SDS011;33163;0.000;0.000;2023-04-29T03:57:32;7.70;;;3.55;;
47413;SDS011;33163;0.000;0.000;2023-04-29T03:59:59;5.85;;;3.33;;
47413;SDS011;33163;0.000;0.000;2023-04-29T04:02:26;7.90;;;3.42;;
47413;SDS011;33163;0.000;0.000;2023-04-29T04:04:53;6.10;;;3.58;;
47413;SDS011;33163;0.000;0.000;2023-04-29T04:07:20;6.57;;;3.67;;
47413;SDS011;33163;0.000;0.000;2023-04-29T04:09:46;5.80;;;3.75;;
47413;SDS011;33163;0.000;0.000;2023-04-29T04:12:14;9.88;;;3.85;;
47413;SDS011;33163;0.000;0.000;2023-04-29T04:14:41;8.57;;;3.03;;
47413;SDS011;33163;0.000;0.000;2023-04-29T04:17:08;4.72;;;2.58;;
47413;SDS011;33163;0.000;0.000;2023-04-29T04:19:35;7.20;;;3.50;;
47413;SDS011;33163;0.000;0.000;2023-04-29T04:22:02;5.85;;;3.42;;
47413;SDS011;33163;0.000;0.000;2023-04-29T04:24:29;5.95;;;3.03;;
47413;SDS011;33163;0.000;0.000;2023-04-29T04:26:56;6.00;;;3.17;;
47413;SDS011;33163;0.000;0.000;2023-04-29T04:29:24;9.18;;;3.17;;
47413;SDS011;33163;0.000;0.000;2023-04-29T04:31:50;6.03;;;3.35;;
47413;SDS011;33163;0.000;0.000;2023-04-29T04:34:17;6.47;;;3.60;;
47413;SDS011;33163;0.000;0.000;2023-04-29T04:36:44;3.90;;;2.72;;
47413;SDS011;33163;0.000;0.000;2023-04-29T04:39:11;7.25;;;2.92;;
47413;SDS011;33163;0.000;0.000;2023-04-29T04:41:37;7.45;;;3.53;;
47413;SDS011;33163;0.000;0.000;2023-04-29T04:44:05;5.10;;;3.03;;
47413;SDS011;33163;0.000;0.000;2023-04-29T04:46:34;5.28;;;2.72;;
47413;SDS011;33163;0.000;0.000;2023-04-29T04:49:00;9.07;;;3.90;;
47413;SDS011;33163;0.000;0.000;2023-04-29T04:51:27;5.40;;;3.28;;
47413;SDS011;33163;0.000;0.000;2023-04-29T04:53:54;8.18;;;3.35;;
47413;SDS011;33163;0.000;0.000;2023-04-29T04:56:21;7.95;;;3.28;;
47413;SDS011;33163;0.000;0.000;2023-04-29T04:58:47;5.13;;;2.67;;
47413;SDS011;33163;0.000;0.000;2023-04-29T05:01:14;5.60;;;3.00;;
47413;SDS011;33163;0.000;0.000;2023-04-29T05:03:42;7.85;;;3.78;;
47413;SDS011;33163;0.000;0.000;2023-04-29T05:06:09;7.55;;;4.00;;
47413;SDS011;33163;0.000;0.000;2023-04-29T05:08:36;9.10;;;3.15;;
47413;SDS011;33163;0.000;0.000;2023-04-29T05:11:03;9.10;;;3.55;;
47413;SDS011;33163;0.000;0.000;2023-04-29T05:13:31;10.48;;;3.45;;
47413;SDS011;33163;0.000;0.000;2023-04-29T05:16:00;5.30;;;3.13;;
47413;SDS011;33163;0.000;0.000;2023-04-29T05:18:27;13.77;;;4.57;;
47413;SDS011;33163;0.000;0.000;2023-04-29T05:20:55;17.67;;;5.70;;
47413;SDS011;33163;0.000;0.000;2023-04-29T05:23:24;13.07;;;4.72;;
47413;SDS011;33163;0.000;0.000;2023-04-29T05:25:50;9.95;;;5.43;;
47413;SDS011;33163;0.000;0.000;2023-04-29T05:28:17;15.30;;;4.88;;
47413;SDS011;33163;0.000;0.000;2023-04-29T05:30:44;8.75;;;3.85;;
47413;SDS011;33163;0.000;0.000;2023-04-29T05:33:11;9.60;;;4.53;;
47413;SDS011;33163;0.000;0.000;2023-04-29T05:35:38;8.52;;;4.32;;
47413;SDS011;33163;0.000;0.000;2023-04-29T05:38:06;13.00;;;5.00;;
47413;SDS011;33163;0.000;0.000;2023-04-29T05:40:33;14.63;;;4.53;;
47413;SDS011;33163;0.000;0.000;2023-04-29T05:42:59;12.57;;;4.25;;
47413;SDS011;33163;0.000;0.000;2023-04-29T05:45:26;16.80;;;4.93;;
47413;SDS011;33163;0.000;0.000;2023-04-29T05:47:53;13.68;;;4.07;;
47413;SDS011;33163;0.000;0.000;2023-04-29T05:50:19;10.50;;;3.55;;
47413;SDS011;33163;0.000;0.000;2023-04-29T05:52:46;7.68;;;4.40;;
47413;SDS011;33163;0.000;0.000;2023-04-29T05:55:14;10.50;;;4.40;;
47413;SDS011;33163;0.000;0.000;2023-04-29T05:57:41;11.23;;;3.42;;
47413;SDS011;33163;0.000;0.000;2023-04-29T06:00:08;9.80;;;3.65;;
47413;SDS011;33163;0.000;0.000;2023-04-29T06:02:35;15.20;;;4.43;;
47413;SDS011;33163;0.000;0.000;2023-04-29T06:05:04;11.00;;;4.00;;
47413;SDS011;33163;0.000;0.000;2023-04-29T06:07:31;15.90;;;4.22;;
47413;SDS011;33163;0.000;0.000;2023-04-29T06:09:58;9.40;;;3.53;;
47413;SDS011;33163;0.000;0.000;2023-04-29T06:12:26;10.82;;;4.05;;
47413;SDS011;33163;0.000;0.000;2023-04-29T06:14:53;10.10;;;4.05;;
47413;SDS011;33163;0.000;0.000;2023-04-29T06:17:20;11.15;;;3.80;;
47413;SDS011;33163;0.000;0.000;2023-04-29T06:19:46;9.70;;;4.22;;
47413;SDS011;33163;0.000;0.000;2023-04-29T06:22:13;11.52;;;4.72;;
47413;SDS011;33163;0.000;0.000;2023-04-29T06:24:40;12.00;;;4.03;;
47413;SDS011;33163;0.000;0.000;2023-04-29T06:27:07;5.18;;;3.70;;
47413;SDS011;33163;0.000;0.000;2023-04-29T06:29:35;10.82;;;4.43;;
47413;SDS011;33163;0.000;0.000;2023-04-29T06:32:02;7.60;;;3.60;;
47413;SDS011;33163;0.000;0.000;2023-04-29T06:34:28;6.65;;;3.50;;
47413;SDS011;33163;0.000;0.000;2023-04-29T06:36:56;8.25;;;4.00;;
47413;SDS011;33163;0.000;0.000;2023-04-29T06:39:22;10.02;;;3.47;;
47413;SDS011;33163;0.000;0.000;2023-04-29T06:41:49;7.47;;;3.95;;
47413;SDS011;33163;0.000;0.000;2023-04-29T06:44:16;7.32;;;3.85;;
47413;SDS011;33163;0.000;0.000;2023-04-29T06:46:44;6.07;;;3.78;;
47413;SDS011;33163;0.000;0.000;2023-04-29T06:49:11;8.00;;;3.55;;
47413;SDS011;33163;0.000;0.000;2023-04-29T06:51:38;9.25;;;3.88;;
47413;SDS011;33163;0.000;0.000;2023-04-29T06:54:06;9.00;;;3.05;;
47413;SDS011;33163;0.000;0.000;2023-04-29T06:56:33;5.72;;;3.10;;
47413;SDS011;33163;0.000;0.000;2023-04-29T06:59:00;10.38;;;3.22;;
47413;SDS011;33163;0.000;0.000;2023-04-29T07:01:28;8.18;;;3.47;;
47413;SDS011;33163;0.000;0.000;2023-04-29T07:03:56;5.40;;;3.50;;
47413;SDS011;33163;0.000;0.000;2023-04-29T07:06:23;7.03;;;3.03;;
47413;SDS011;33163;0.000;0.000;2023-04-29T07:08:50;4.43;;;2.85;;
47413;SDS011;33163;0.000;0.000;2023-04-29T07:11:16;7.13;;;3.50;;
47413;SDS011;33163;0.000;0.000;2023-04-29T07:13:43;6.35;;;3.13;;
47413;SDS011;33163;0.000;0.000;2023-04-29T07:16:13;4.22;;;2.65;;
47413;SDS011;33163;0.000;0.000;2023-04-29T07:18:41;9.80;;;3.30;;
47413;SDS011;33163;0.000;0.000;2023-04-29T07:21:10;5.68;;;2.92;;
47413;SDS011;33163;0.000;0.000;2023-04-29T07:23:36;7.75;;;3.50;;
47413;SDS011;33163;0.000;0.000;2023-04-29T07:26:08;7.97;;;2.60;;
47413;SDS011;33163;0.000;0.000;2023-04-29T07:28:35;4.90;;;2.95;;
47413;SDS011;33163;0.000;0.000;2023-04-29T07:31:02;5.80;;;2.90;;
47413;SDS011;33163;0.000;0.000;2023-04-29T07:33:28;8.18;;;2.70;;
47413;SDS011;33163;0.000;0.000;2023-04-29T07:35:55;6.30;;;2.90;;
47413;SDS011;33163;0.000;0.000;2023-04-29T07:38:23;7.35;;;2.70;;
47413;SDS011;33163;0.000;0.000;2023-04-29T07:40:50;7.32;;;2.58;;
47413;SDS011;33163;0.000;0.000;2023-04-29T07:43:17;5.57;;;2.58;;
47413;SDS011;33163;0.000;0.000;2023-04-29T07:45:44;5.43;;;3.08;;
47413;SDS011;33163;0.000;0.000;2023-04-29T07:48:11;5.32;;;2.70;;
47413;SDS011;33163;0.000;0.000;2023-04-29T07:50:37;3.50;;;2.03;;
47413;SDS011;33163;0.000;0.000;2023-04-29T07:53:04;6.85;;;2.40;;
47413;SDS011;33163;0.000;0.000;2023-04-29T07:55:33;10.27;;;3.15;;
47413;SDS011;33163;0.000;0.000;2023-04-29T07:57:59;4.65;;;2.35;;
47413;SDS011;33163;0.000;0.000;2023-04-29T08:00:26;4.15;;;2.35;;
47413;SDS011;33163;0.000;0.000;2023-04-29T08:02:53;6.93;;;2.50;;
47413;SDS011;33163;0.000;0.000;2023-04-29T08:05:21;5.40;;;2.47;;
47413;SDS011;33163;0.000;0.000;2023-04-29T08:07:49;5.68;;;2.25;;
47413;SDS011;33163;0.000;0.000;2023-04-29T08:10:16;3.92;;;2.33;;
47413;SDS011;33163;0.000;0.000;2023-04-29T08:12:45;6.40;;;2.85;;
47413;SDS011;33163;0.000;0.000;2023-04-29T08:15:12;6.95;;;2.40;;
47413;SDS011;33163;0.000;0.000;2023-04-29T08:17:39;6.68;;;2.72;;
47413;SDS011;33163;0.000;0.000;2023-04-29T08:20:07;9.40;;;2.92;;
47413;SDS011;33163;0.000;0.000;2023-04-29T08:22:34;5.35;;;2.30;;
47413;SDS011;33163;0.000;0.000;2023-04-29T08:25:01;3.97;;;2.35;;
47413;SDS011;33163;0.000;0.000;2023-04-29T08:27:29;7.82;;;2.38;;
47413;SDS011;33163;0.000;0.000;2023-04-29T08:29:57;9.13;;;2.80;;
47413;SDS011;33163;0.000;0.000;2023-04-29T08:32:24;5.78;;;2.83;;
47413;SDS011;33163;0.000;0.000;2023-04-29T08:34:51;5.20;;;2.40;;
47413;SDS011;33163;0.000;0.000;2023-04-29T08:37:18;9.27;;;2.65;;
47413;SDS011;33163;0.000;0.000;2023-04-29T08:39:45;12.63;;;3.08;;
47413;SDS011;33163;0.000;0.000;2023-04-29T08:42:12;6.60;;;2.10;;
47413;SDS011;33163;0.000;0.000;2023-04-29T08:44:39;9.93;;;2.97;;
47413;SDS011;33163;0.000;0.000;2023-04-29T08:47:07;3.55;;;2.03;;
47413;SDS011;33163;0.000;0.000;2023-04-29T08:49:34;8.52;;;2.55;;
47413;SDS011;33163;0.000;0.000;2023-04-29T08:52:02;5.40;;;2.65;;
47413;SDS011;33163;0.000;0.000;2023-04-29T08:54:30;3.28;;;1.95;;
47413;SDS011;33163;0.000;0.000;2023-04-29T08:56:56;5.30;;;2.17;;
47413;SDS011;33163;0.000;0.000;2023-04-29T08:59:26;3.38;;;1.92;;
47413;SDS011;33163;0.000;0.000;2023-04-29T09:01:54;3.25;;;2.13;;
47413;SDS011;33163;0.000;0.000;2023-04-29T09:04:27;5.57;;;2.53;;
47413;SDS011;33163;0.000;0.000;2023-04-29T09:06:58;3.85;;;2.13;;
47413;SDS011;33163;0.000;0.000;2023-04-29T09:09:26;8.07;;;2.20;;
47413;SDS011;33163;0.000;0.000;2023-04-29T09:11:54;4.47;;;2.20;;
47413;SDS011;33163;0.000;0.000;2023-04-29T09:14:20;6.53;;;2.25;;
47413;SDS011;33163;0.000;0.000;2023-04-29T09:16:48;5.50;;;2.10;;
47413;SDS011;33163;0.000;0.000;2023-04-29T09:19:29;5.45;;;1.77;;
47413;SDS011;33163;0.000;0.000;2023-04-29T09:21:57;3.83;;;2.10;;
47413;SDS011;33163;0.000;0.000;2023-04-29T09:24:24;5.80;;;2.00;;
47413;SDS011;33163;0.000;0.000;2023-04-29T09:26:51;5.82;;;2.35;;
47413;SDS011;33163;0.000;0.000;2023-04-29T09:29:18;4.78;;;1.83;;
47413;SDS011;33163;0.000;0.000;2023-04-29T09:31:45;3.80;;;1.90;;
47413;SDS011;33163;0.000;0.000;2023-04-29T09:34:12;3.67;;;2.10;;
47413;SDS011;33163;0.000;0.000;2023-04-29T09:36:42;5.93;;;2.13;;
47413;SDS011;33163;0.000;0.000;2023-04-29T09:39:11;4.05;;;1.90;;
47413;SDS011;33163;0.000;0.000;2023-04-29T09:41:40;6.13;;;2.10;;
47413;SDS011;33163;0.000;0.000;2023-04-29T09:44:09;4.32;;;2.00;;
47413;SDS011;33163;0.000;0.000;2023-04-29T09:46:36;5.30;;;2.17;;
47413;SDS011;33163;0.000;0.000;2023-04-29T09:49:03;6.10;;;2.13;;
47413;SDS011;33163;0.000;0.000;2023-04-29T09:51:52;9.95;;;2.08;;
47413;SDS011;33163;0.000;0.000;2023-04-29T09:54:19;3.70;;;1.92;;
47413;SDS011;33163;0.000;0.000;2023-04-29T09:56:47;3.50;;;1.73;;
47413;SDS011;33163;0.000;0.000;2023-04-29T09:59:15;2.55;;;1.88;;
47413;SDS011;33163;0.000;0.000;2023-04-29T10:01:42;2.90;;;1.50;;
47413;SDS011;33163;0.000;0.000;2023-04-29T10:04:09;5.65;;;1.80;;
47413;SDS011;33163;0.000;0.000;2023-04-29T10:06:37;6.93;;;1.70;;
47413;SDS011;33163;0.000;0.000;2023-04-29T10:09:07;3.38;;;1.70;;
47413;SDS011;33163;0.000;0.000;2023-04-29T10:11:40;3.30;;;1.50;;
47413;SDS011;33163;0.000;0.000;2023-04-29T10:14:07;3.03;;;1.77;;
47413;SDS011;33163;0.000;0.000;2023-04-29T10:16:38;3.63;;;2.08;;
47413;SDS011;33163;0.000;0.000;2023-04-29T10:19:10;4.97;;;2.00;;
47413;SDS011;33163;0.000;0.000;2023-04-29T10:21:40;9.43;;;1.60;;
47413;SDS011;33163;0.000;0.000;2023-04-29T10:24:08;12.13;;;2.20;;
47413;SDS011;33163;0.000;0.000;2023-04-29T10:26:37;10.10;;;1.83;;
47413;SDS011;33163;0.000;0.000;2023-04-29T10:29:05;13.75;;;2.30;;
47413;SDS011;33163;0.000;0.000;2023-04-29T10:31:34;15.02;;;2.40;;
47413;SDS011;33163;0.000;0.000;2023-04-29T10:34:03;5.13;;;1.80;;
47413;SDS011;33163;0.000;0.000;2023-04-29T10:36:30;4.55;;;1.98;;
47413;SDS011;33163;0.000;0.000;2023-04-29T10:38:59;7.78;;;2.03;;
47413;SDS011;33163;0.000;0.000;2023-04-29T10:41:30;8.07;;;1.80;;
47413;SDS011;33163;0.000;0.000;2023-04-29T10:44:00;6.22;;;1.88;;
47413;SDS011;33163;0.000;0.000;2023-04-29T10:46:28;3.45;;;1.67;;
47413;SDS011;33163;0.000;0.000;2023-04-29T10:48:55;5.47;;;1.67;;
47413;SDS011;33163;0.000;0.000;2023-04-29T10:51:29;3.10;;;1.88;;
47413;SDS011;33163;0.000;0.000;2023-04-29T10:53:58;5.55;;;1.92;;
47413;SDS011;33163;0.000;0.000;2023-04-29T10:56:36;6.55;;;1.80;;
47413;SDS011;33163;0.000;0.000;2023-04-29T10:59:03;6.57;;;2.25;;
47413;SDS011;33163;0.000;0.000;2023-04-29T11:01:41;4.88;;;1.90;;
47413;SDS011;33163;0.000;0.000;2023-04-29T11:04:09;12.45;;;2.17;;
47413;SDS011;33163;0.000;0.000;2023-04-29T11:06:40;12.65;;;2.55;;
47413;SDS011;33163;0.000;0.000;2023-04-29T11:09:10;9.65;;;3.47;;
47413;SDS011;33163;0.000;0.000;2023-04-29T11:11:43;10.93;;;4.38;;
47413;SDS011;33163;0.000;0.000;2023-04-29T11:14:11;11.30;;;4.93;;
47413;SDS011;33163;0.000;0.000;2023-04-29T11:16:45;9.88;;;4.53;;
47413;SDS011;33163;0.000;0.000;2023-04-29T11:19:13;11.03;;;4.57;;
47413;SDS011;33163;0.000;0.000;2023-04-29T11:21:41;9.70;;;5.03;;
47413;SDS011;33163;0.000;0.000;2023-04-29T11:24:11;12.32;;;4.75;;
47413;SDS011;33163;0.000;0.000;2023-04-29T11:26:39;12.73;;;4.28;;
47413;SDS011;33163;0.000;0.000;2023-04-29T11:29:08;7.47;;;4.00;;
47413;SDS011;33163;0.000;0.000;2023-04-29T11:31:35;10.48;;;4.75;;
47413;SDS011;33163;0.000;0.000;2023-04-29T11:34:03;7.45;;;4.20;;
47413;SDS011;33163;0.000;0.000;2023-04-29T11:36:30;14.10;;;4.65;;
47413;SDS011;33163;0.000;0.000;2023-04-29T11:38:58;10.98;;;4.13;;
47413;SDS011;33163;0.000;0.000;2023-04-29T11:41:26;10.43;;;4.68;;
47413;SDS011;33163;0.000;0.000;2023-04-29T11:43:56;9.70;;;3.92;;
47413;SDS011;33163;0.000;0.000;2023-04-29T11:46:25;5.75;;;3.08;;
47413;SDS011;33163;0.000;0.000;2023-04-29T11:48:56;13.55;;;4.03;;
47413;SDS011;33163;0.000;0.000;2023-04-29T11:51:23;8.85;;;4.20;;
47413;SDS011;33163;0.000;0.000;2023-04-29T11:53:51;16.77;;;5.22;;
47413;SDS011;33163;0.000;0.000;2023-04-29T11:56:20;11.63;;;4.07;;
47413;SDS011;33163;0.000;0.000;2023-04-29T11:58:49;8.27;;;3.78;;
47413;SDS011;33163;0.000;0.000;2023-04-29T12:01:19;9.23;;;3.90;;
47413;SDS011;33163;0.000;0.000;2023-04-29T12:03:47;16.50;;;4.60;;
47413;SDS011;33163;0.000;0.000;2023-04-29T12:06:14;6.53;;;3.83;;
47413;SDS011;33163;0.000;0.000;2023-04-29T12:08:41;11.82;;;4.43;;
47413;SDS011;33163;0.000;0.000;2023-04-29T12:11:09;9.23;;;3.80;;
47413;SDS011;33163;0.000;0.000;2023-04-29T12:13:36;9.98;;;3.55;;
47413;SDS011;33163;0.000;0.000;2023-04-29T12:16:03;14.75;;;2.88;;
47413;SDS011;33163;0.000;0.000;2023-04-29T12:18:31;8.43;;;3.13;;
47413;SDS011;33163;0.000;0.000;2023-04-29T12:20:59;7.30;;;2.90;;
47413;SDS011;33163;0.000;0.000;2023-04-29T12:23:26;15.13;;;3.10;;
47413;SDS011;33163;0.000;0.000;2023-04-29T12:25:54;7.60;;;2.50;;
47413;SDS011;33163;0.000;0.000;2023-04-29T12:28:22;7.22;;;2.20;;
47413;SDS011;33163;0.000;0.000;2023-04-29T12:30:49;8.68;;;2.88;;
47413;SDS011;33163;0.000;0.000;2023-04-29T12:33:18;3.80;;;1.98;;
47413;SDS011;33163;0.000;0.000;2023-04-29T12:35:46;8.95;;;3.15;;
47413;SDS011;33163;0.000;0.000;2023-04-29T12:38:24;6.40;;;2.20;;
47413;SDS011;33163;0.000;0.000;2023-04-29T12:40:52;4.97;;;2.13;;
47413;SDS011;33163;0.000;0.000;2023-04-29T12:43:24;5.35;;;2.25;;
47413;SDS011;33163;0.000;0.000;2023-04-29T12:45:53;5.70;;;2.17;;
47413;SDS011;33163;0.000;0.000;2023-04-29T12:48:21;4.25;;;1.63;;
47413;SDS011;33163;0.000;0.000;2023-04-29T12:50:54;10.77;;;2.63;;
47413;SDS011;33163;0.000;0.000;2023-04-29T12:53:23;3.58;;;1.80;;
47413;SDS011;33163;0.000;0.000;2023-04-29T12:55:50;4.60;;;2.17;;
47413;SDS011;33163;0.000;0.000;2023-04-29T12:58:18;8.13;;;2.10;;
47413;SDS011;33163;0.000;0.000;2023-04-29T13:00:45;9.38;;;2.53;;
47413;SDS011;33163;0.000;0.000;2023-04-29T13:03:12;4.80;;;2.03;;
47413;SDS011;33163;0.000;0.000;2023-04-29T13:05:39;4.90;;;2.15;;
47413;SDS011;33163;0.000;0.000;2023-04-29T13:08:06;6.20;;;1.88;;
47413;SDS011;33163;0.000;0.000;2023-04-29T13:10:34;3.67;;;2.03;;
47413;SDS011;33163;0.000;0.000;2023-04-29T13:13:01;3.83;;;2.10;;
47413;SDS011;33163;0.000;0.000;2023-04-29T13:15:28;5.40;;;1.92;;
47413;SDS011;33163;0.000;0.000;2023-04-29T13:17:55;5.30;;;1.80;;
47413;SDS011;33163;0.000;0.000;2023-04-29T13:20:22;4.15;;;2.13;;
47413;SDS011;33163;0.000;0.000;2023-04-29T13:22:49;6.55;;;1.70;;
47413;SDS011;33163;0.000;0.000;2023-04-29T13:25:16;8.52;;;2.40;;
47413;SDS011;33163;0.000;0.000;2023-04-29T13:27:44;6.13;;;1.98;;
47413;SDS011;33163;0.000;0.000;2023-04-29T13:30:11;5.30;;;2.00;;
47413;SDS011;33163;0.000;0.000;2023-04-29T13:32:38;5.45;;;1.67;;
47413;SDS011;33163;0.000;0.000;2023-04-29T13:35:06;4.07;;;2.00;;
47413;SDS011;33163;0.000;0.000;2023-04-29T13:37:33;5.43;;;1.85;;
47413;SDS011;33163;0.000;0.000;2023-04-29T13:40:00;4.78;;;2.60;;
47413;SDS011;33163;0.000;0.000;2023-04-29T13:42:28;6.78;;;2.42;;
47413;SDS011;33163;0.000;0.000;2023-04-29T13:44:56;2.95;;;1.58;;
47413;SDS011;33163;0.000;0.000;2023-04-29T13:47:23;5.30;;;1.83;;
47413;SDS011;33163;0.000;0.000;2023-04-29T13:49:49;4.30;;;1.77;;
47413;SDS011;33163;0.000;0.000;2023-04-29T13:52:16;4.45;;;2.28;;
47413;SDS011;33163;0.000;0.000;2023-04-29T13:54:43;5.32;;;2.08;;
47413;SDS011;33163;0.000;0.000;2023-04-29T13:57:10;6.60;;;2.28;;
47413;SDS011;33163;0.000;0.000;2023-04-29T13:59:36;5.53;;;2.20;;
47413;SDS011;33163;0.000;0.000;2023-04-29T14:02:04;2.63;;;1.67;;
47413;SDS011;33163;0.000;0.000;2023-04-29T14:04:31;5.05;;;2.58;;
47413;SDS011;33163;0.000;0.000;2023-04-29T14:06:58;4.68;;;1.88;;
47413;SDS011;33163;0.000;0.000;2023-04-29T14:09:25;5.78;;;2.47;;
47413;SDS011;33163;0.000;0.000;2023-04-29T14:11:52;5.70;;;1.83;;
47413;SDS011;33163;0.000;0.000;2023-04-29T14:14:18;2.38;;;1.67;;
47413;SDS011;33163;0.000;0.000;2023-04-29T14:16:45;8.00;;;2.00;;
47413;SDS011;33163;0.000;0.000;2023-04-29T14:19:14;4.70;;;2.35;;
47413;SDS011;33163;0.000;0.000;2023-04-29T14:21:40;3.47;;;1.63;;
47413;SDS011;33163;0.000;0.000;2023-04-29T14:24:07;3.20;;;1.65;;
47413;SDS011;33163;0.000;0.000;2023-04-29T14:26:34;5.22;;;2.22;;
47413;SDS011;33163;0.000;0.000;2023-04-29T14:29:01;3.58;;;1.90;;
47413;SDS011;33163;0.000;0.000;2023-04-29T14:31:28;2.92;;;1.80;;
47413;SDS011;33163;0.000;0.000;2023-04-29T14:33:58;4.20;;;2.00;;
47413;SDS011;33163;0.000;0.000;2023-04-29T14:36:26;5.38;;;2.30;;
47413;SDS011;33163;0.000;0.000;2023-04-29T14:38:53;10.48;;;2.35;;
47413;SDS011;33163;0.000;0.000;2023-04-29T14:41:20;6.68;;;2.20;;
47413;SDS011;33163;0.000;0.000;2023-04-29T14:43:46;2.70;;;2.13;;
47413;SDS011;33163;0.000;0.000;2023-04-29T14:46:13;5.95;;;2.22;;
47413;SDS011;33163;0.000;0.000;2023-04-29T14:48:40;4.78;;;1.90;;
47413;SDS011;33163;0.000;0.000;2023-04-29T14:51:07;3.33;;;1.70;;
47413;SDS011;33163;0.000;0.000;2023-04-29T14:53:36;2.08;;;1.60;;
47413;SDS011;33163;0.000;0.000;2023-04-29T14:56:03;2.95;;;1.92;;
47413;SDS011;33163;0.000;0.000;2023-04-29T14:58:29;3.80;;;2.35;;
47413;SDS011;33163;0.000;0.000;2023-04-29T15:00:56;5.40;;;1.98;;